Time;durP1;ratioP1;P1;durP2;ratioP2;P2;SDS_P1;SDS_P2;PMS_P1;PMS_P2;Temp;Humidity;BMP_temperature;BMP_pressure;BME280_temperature;BME280_humidity;BME280_pressure;Samples;Min_cycle;Max_cycle;Signal;HPM_P1;HPM_P2
2022/10/09 00:02:53;;;;;;;0.38;0.30;;;20.50;56.10;;;;;;6265362;28;20067;-66
2022/10/09 00:05:54;;;;;;;0.40;0.40;;;20.50;56.10;;;;;;6266000;28;20332;-65
2022/10/09 00:08:55;;;;;;;0.85;0.52;;;20.50;56.00;;;;;;6268791;28;20039;-65
2022/10/09 00:11:56;;;;;;;1.65;0.57;;;20.50;56.10;;;;;;6268043;28;20036;-65
2022/10/09 00:14:57;;;;;;;0.63;0.35;;;20.50;56.20;;;;;;6269374;28;20112;-65
2022/10/09 00:17:57;;;;;;;0.50;0.40;;;20.50;56.10;;;;;;6269297;28;20126;-66
2022/10/09 00:20:58;;;;;;;0.77;0.50;;;20.50;56.00;;;;;;6269017;28;20478;-65
2022/10/09 00:24:00;;;;;;;1.50;0.60;;;20.50;56.00;;;;;;6268632;28;20418;-66
2022/10/09 00:27:00;;;;;;;0.50;0.40;;;20.50;56.10;;;;;;6269129;28;20513;-65
2022/10/09 00:30:01;;;;;;;0.63;0.50;;;20.50;56.10;;;;;;6269129;28;20025;-66
2022/10/09 00:33:02;;;;;;;1.20;0.40;;;20.50;55.90;;;;;;6268894;28;20037;-65
2022/10/09 00:36:12;;;;;;;0.95;0.52;;;20.50;56.00;;;;;;6268755;28;20033;-66
2022/10/09 00:39:12;;;;;;;0.85;0.40;;;20.50;56.00;;;;;;6268659;28;20021;-65
2022/10/09 00:42:13;;;;;;;0.63;0.45;;;20.50;56.00;;;;;;6268726;28;20013;-65
2022/10/09 00:45:19;;;;;;;0.68;0.40;;;20.50;56.00;;;;;;6260852;28;20091;-66
2022/10/09 00:48:21;;;;;;;1.27;0.68;;;20.50;56.00;;;;;;6262274;28;20456;-66
2022/10/09 00:51:22;;;;;;;0.65;0.38;;;20.50;56.00;;;;;;6267079;28;20115;-66
2022/10/09 00:54:28;;;;;;;0.80;0.60;;;20.50;56.00;;;;;;6267714;28;20031;-66
2022/10/09 00:57:31;;;;;;;0.88;0.45;;;20.40;56.00;;;;;;6268125;28;20456;-66
2022/10/09 01:00:32;;;;;;;0.63;0.50;;;20.50;56.00;;;;;;6268418;28;20142;-66
2022/10/09 01:03:33;;;;;;;0.45;0.30;;;20.50;56.00;;;;;;6267880;28;20478;-65
2022/10/09 01:07:15;;;;;;;0.50;0.30;;;20.50;55.90;;;;;;6267954;28;20028;-66
2022/10/09 01:10:15;;;;;;;0.80;0.40;;;20.50;55.90;;;;;;6267686;28;20702;-66
2022/10/09 01:13:36;;;;;;;1.83;0.45;;;20.50;56.00;;;;;;6268271;28;20032;-66
2022/10/09 01:16:43;;;;;;;0.50;0.40;;;20.50;56.00;;;;;;6266194;28;20102;-65
2022/10/09 01:19:49;;;;;;;0.90;0.60;;;20.50;55.90;;;;;;6267291;28;20465;-65
2022/10/09 01:23:02;;;;;;;0.90;0.50;;;20.50;55.90;;;;;;6265740;28;20116;-66
2022/10/09 01:26:17;;;;;;;0.30;0.30;;;20.50;56.70;;;;;;6258076;28;20034;-66
2022/10/09 01:29:23;;;;;;;1.15;0.40;;;20.50;55.90;;;;;;6253983;28;20719;-66
2022/10/09 01:32:30;;;;;;;0.60;0.38;;;20.50;55.90;;;;;;6267498;28;20025;-65
2022/10/09 01:35:31;;;;;;;0.52;0.35;;;20.50;56.00;;;;;;6267161;28;20115;-66
2022/10/09 01:38:33;;;;;;;2.60;0.40;;;20.50;56.00;;;;;;6266331;28;20029;-65
2022/10/09 01:41:34;;;;;;;0.68;0.40;;;20.50;55.90;;;;;;6267058;28;20040;-66
2022/10/09 01:44:35;;;;;;;1.20;0.40;;;20.50;55.90;;;;;;6264942;28;20029;-66
2022/10/09 01:47:36;;;;;;;0.70;0.40;;;20.50;55.90;;;;;;6261109;28;20045;-66
2022/10/09 01:50:42;;;;;;;0.30;0.30;;;20.50;56.60;;;;;;6266896;28;20017;-66
2022/10/09 01:53:43;;;;;;;1.75;0.50;;;20.50;55.90;;;;;;6266489;28;20025;-66
2022/10/09 01:56:46;;;;;;;1.13;0.40;;;20.50;55.90;;;;;;6266907;28;20025;-65
2022/10/09 01:59:49;;;;;;;0.85;0.60;;;20.50;55.90;;;;;;6267055;28;20033;-66
2022/10/09 02:02:52;;;;;;;0.40;0.30;;;20.50;55.90;;;;;;6267751;28;20059;-65
2022/10/09 02:05:55;;;;;;;0.15;0.15;;;20.50;56.00;;;;;;6266508;28;20480;-66
2022/10/09 02:08:58;;;;;;;0.65;0.50;;;20.50;56.00;;;;;;6266734;28;20025;-65
2022/10/09 02:12:06;;;;;;;0.70;0.50;;;20.50;55.80;;;;;;6266358;28;20052;-66
2022/10/09 02:15:09;;;;;;;0.90;0.32;;;20.50;55.80;;;;;;6266192;28;20029;-65
2022/10/09 02:18:14;;;;;;;0.75;0.40;;;20.50;55.90;;;;;;6266490;28;20021;-65
2022/10/09 02:21:21;;;;;;;0.32;0.30;;;20.50;55.90;;;;;;6266139;28;20471;-66
2022/10/09 02:24:22;;;;;;;0.98;0.50;;;20.50;55.80;;;;;;6264281;28;20040;-66
2022/10/09 02:27:24;;;;;;;0.57;0.43;;;20.50;55.90;;;;;;6266278;28;20025;-65
2022/10/09 02:30:33;;;;;;;0.40;0.30;;;20.50;55.90;;;;;;6265384;28;20032;-65
2022/10/09 02:33:33;;;;;;;0.45;0.30;;;20.50;55.90;;;;;;6265502;28;20048;-65
2022/10/09 02:36:34;;;;;;;0.75;0.40;;;20.50;55.90;;;;;;6265633;28;20109;-66
2022/10/09 02:39:35;;;;;;;0.30;0.30;;;20.50;55.90;;;;;;6265745;28;20060;-65
2022/10/09 02:42:36;;;;;;;0.95;0.50;;;20.50;55.90;;;;;;6266032;28;20052;-66
2022/10/09 02:45:36;;;;;;;0.60;0.50;;;20.50;55.90;;;;;;6254657;28;20490;-65
2022/10/09 02:48:38;;;;;;;0.30;0.30;;;20.50;56.00;;;;;;6260992;28;20052;-65
2022/10/09 02:51:38;;;;;;;0.40;0.40;;;20.50;55.90;;;;;;6265735;28;20021;-66
2022/10/09 02:54:39;;;;;;;0.50;0.30;;;20.50;55.90;;;;;;6265672;28;20068;-66
2022/10/09 02:57:39;;;;;;;0.85;0.40;;;20.50;55.90;;;;;;6265896;28;20078;-65
2022/10/09 03:00:40;;;;;;;1.20;0.40;;;20.50;55.80;;;;;;6265609;28;20029;-66
2022/10/09 03:03:41;;;;;;;0.43;0.35;;;20.50;55.90;;;;;;6265626;28;20078;-66
2022/10/09 03:06:41;;;;;;;0.30;0.30;;;20.40;55.80;;;;;;6265466;28;20456;-65
2022/10/09 03:09:42;;;;;;;0.52;0.35;;;20.40;55.90;;;;;;6266146;28;20029;-65
2022/10/09 03:12:43;;;;;;;0.50;0.40;;;20.50;55.90;;;;;;6264143;28;20375;-65
2022/10/09 03:15:44;;;;;;;0.50;0.40;;;20.40;55.90;;;;;;6264370;28;20028;-65
2022/10/09 03:18:46;;;;;;;0.32;0.30;;;20.40;55.80;;;;;;6265518;28;20035;-65
2022/10/09 03:21:46;;;;;;;0.63;0.30;;;20.40;55.80;;;;;;6263791;28;20116;-65
2022/10/09 03:24:47;;;;;;;0.55;0.45;;;20.40;55.90;;;;;;6265313;28;20029;-65
2022/10/09 03:27:48;;;;;;;0.30;0.30;;;20.40;55.90;;;;;;6265523;28;20509;-65
2022/10/09 03:30:48;;;;;;;0.95;0.40;;;20.40;55.90;;;;;;6265383;28;20036;-65
2022/10/09 03:33:49;;;;;;;0.32;0.30;;;20.40;55.80;;;;;;6265144;28;20029;-65
2022/10/09 03:36:50;;;;;;;0.45;0.40;;;20.40;55.90;;;;;;6265722;28;20748;-66
2022/10/09 03:39:50;;;;;;;0.85;0.32;;;20.40;55.80;;;;;;6264980;28;20021;-65
2022/10/09 03:42:51;;;;;;;3.10;0.30;;;20.40;55.90;;;;;;6269547;28;20024;-65
2022/10/09 03:45:53;;;;;;;0.82;0.32;;;20.40;55.90;;;;;;6267041;28;20096;-66
2022/10/09 03:48:54;;;;;;;0.63;0.30;;;20.40;55.90;;;;;;6269934;28;20052;-66
2022/10/09 03:51:54;;;;;;;0.93;0.32;;;20.40;55.90;;;;;;6268835;28;20033;-65
2022/10/09 03:54:55;;;;;;;0.60;0.30;;;20.40;55.90;;;;;;6269407;28;20025;-66
2022/10/09 03:57:56;;;;;;;1.30;0.30;;;20.40;55.90;;;;;;6269973;28;20682;-66
2022/10/09 04:00:56;;;;;;;0.80;0.50;;;20.40;55.90;;;;;;6269833;28;20032;-65
2022/10/09 04:03:57;;;;;;;0.50;0.40;;;20.40;55.90;;;;;;6260186;28;20025;-65
2022/10/09 04:06:58;;;;;;;0.40;0.40;;;20.40;55.90;;;;;;6244880;28;20021;-66
2022/10/09 04:09:59;;;;;;;0.30;0.30;;;20.40;55.90;;;;;;6265499;28;20031;-65
2022/10/09 04:12:59;;;;;;;0.50;0.40;;;20.40;55.90;;;;;;6269117;28;20533;-65
2022/10/09 04:16:00;;;;;;;0.50;0.30;;;20.40;55.90;;;;;;6269263;28;20131;-65
2022/10/09 04:19:01;;;;;;;0.22;0.22;;;20.40;55.90;;;;;;6269252;28;20018;-65
2022/10/09 04:22:02;;;;;;;0.35;0.25;;;20.40;55.90;;;;;;6269167;28;20033;-66
2022/10/09 04:25:03;;;;;;;1.25;0.40;;;20.40;55.90;;;;;;6269428;28;20025;-65
2022/10/09 04:28:03;;;;;;;0.80;0.38;;;20.40;55.90;;;;;;6268908;28;20025;-65
2022/10/09 04:31:04;;;;;;;0.65;0.43;;;20.40;55.90;;;;;;6269293;28;20410;-65
2022/10/09 04:34:05;;;;;;;0.40;0.40;;;20.40;55.90;;;;;;6267619;28;20031;-66
2022/10/09 04:37:06;;;;;;;0.60;0.30;;;20.40;55.90;;;;;;6268788;28;20090;-66
2022/10/09 04:40:07;;;;;;;0.40;0.30;;;20.40;55.90;;;;;;6268776;28;20036;-66
2022/10/09 04:43:08;;;;;;;0.40;0.40;;;20.40;56.00;;;;;;6269114;28;20024;-65
2022/10/09 04:46:11;;;;;;;1.02;0.50;;;20.40;55.90;;;;;;6253024;28;20060;-65
2022/10/09 04:49:13;;;;;;;0.50;0.40;;;20.40;55.90;;;;;;6252216;28;20033;-65
2022/10/09 04:52:15;;;;;;;0.57;0.50;;;20.40;56.00;;;;;;6267807;28;20045;-66
2022/10/09 04:55:16;;;;;;;0.40;0.40;;;20.40;56.00;;;;;;6266648;28;20021;-66
2022/10/09 04:58:16;;;;;;;1.48;0.40;;;20.40;56.00;;;;;;6268633;28;20025;-65
2022/10/09 05:01:20;;;;;;;1.10;0.47;;;20.40;56.00;;;;;;6266305;28;20043;-65
2022/10/09 05:04:21;;;;;;;0.43;0.38;;;20.40;56.00;;;;;;6268004;28;20098;-65
2022/10/09 05:07:22;;;;;;;0.65;0.43;;;20.40;56.00;;;;;;6268272;28;20096;-65
2022/10/09 05:10:23;;;;;;;0.30;0.30;;;20.40;56.40;;;;;;6267987;28;20025;-66
2022/10/09 05:13:24;;;;;;;0.20;0.20;;;20.40;56.00;;;;;;6268024;28;20028;-65
2022/10/09 05:16:27;;;;;;;0.30;0.20;;;20.40;56.00;;;;;;6267849;28;20028;-65
2022/10/09 05:19:28;;;;;;;0.85;0.40;;;20.40;56.00;;;;;;6267701;28;20045;-66
2022/10/09 05:22:28;;;;;;;0.50;0.40;;;20.40;56.00;;;;;;6267735;28;20025;-65
2022/10/09 05:25:29;;;;;;;0.43;0.40;;;20.40;56.00;;;;;;6267610;28;20524;-66
2022/10/09 05:28:31;;;;;;;0.60;0.32;;;20.40;56.00;;;;;;6267738;28;20043;-66
2022/10/09 05:31:32;;;;;;;0.38;0.30;;;20.40;56.10;;;;;;6267756;28;20432;-66
2022/10/09 05:34:33;;;;;;;0.70;0.40;;;20.40;56.00;;;;;;6267189;28;20040;-65
2022/10/09 05:37:34;;;;;;;0.88;0.40;;;20.40;56.10;;;;;;6267897;28;20075;-66
2022/10/09 05:40:34;;;;;;;1.02;0.47;;;20.40;56.00;;;;;;6267294;28;20363;-65
2022/10/09 05:43:39;;;;;;;0.30;0.30;;;20.40;56.00;;;;;;6267433;28;20605;-66
2022/10/09 05:46:40;;;;;;;0.40;0.32;;;20.40;56.00;;;;;;6247750;28;20601;-66
2022/10/09 05:49:41;;;;;;;0.55;0.30;;;20.40;56.00;;;;;;6246398;28;20044;-66
2022/10/09 05:52:41;;;;;;;0.30;0.30;;;20.40;56.00;;;;;;6267409;28;20040;-66
2022/10/09 05:55:42;;;;;;;0.75;0.30;;;20.40;56.00;;;;;;6266977;28;20500;-66
2022/10/09 05:58:47;;;;;;;2.10;0.50;;;20.40;56.00;;;;;;6267427;28;20601;-66
2022/10/09 06:01:50;;;;;;;0.30;0.30;;;20.40;56.00;;;;;;6266836;28;20039;-66
2022/10/09 06:04:50;;;;;;;0.32;0.20;;;20.40;56.00;;;;;;6266814;28;20120;-65
2022/10/09 06:07:51;;;;;;;0.80;0.40;;;20.40;56.00;;;;;;6266851;28;20043;-66
2022/10/09 06:10:52;;;;;;;0.47;0.30;;;20.40;56.00;;;;;;6266764;28;20094;-65
2022/10/09 06:13:56;;;;;;;0.30;0.30;;;20.40;56.00;;;;;;6266430;28;20108;-65
2022/10/09 06:16:58;;;;;;;0.55;0.40;;;20.40;56.10;;;;;;6266349;28;20024;-65
2022/10/09 06:19:58;;;;;;;0.60;0.40;;;20.40;56.00;;;;;;6266354;28;20048;-65
2022/10/09 06:22:59;;;;;;;0.40;0.30;;;20.40;56.00;;;;;;6266500;28;20521;-66
2022/10/09 06:26:03;;;;;;;0.80;0.57;;;20.40;56.00;;;;;;6266442;28;20029;-65
2022/10/09 06:29:05;;;;;;;1.30;1.05;;;20.40;56.10;;;;;;6266188;28;20060;-66
2022/10/09 06:32:06;;;;;;;0.30;0.20;;;20.40;56.00;;;;;;6265195;28;20040;-65
2022/10/09 06:35:07;;;;;;;0.63;0.30;;;20.40;56.00;;;;;;6265908;28;20595;-66
2022/10/09 06:38:08;;;;;;;2.10;0.43;;;20.40;56.00;;;;;;6266458;28;20517;-65
2022/10/09 06:41:11;;;;;;;0.47;0.40;;;20.40;56.00;;;;;;6266083;28;20025;-65
2022/10/09 06:44:15;;;;;;;0.50;0.32;;;20.40;55.90;;;;;;6265755;28;20074;-66
2022/10/09 06:47:16;;;;;;;0.30;0.30;;;20.40;56.00;;;;;;6259477;28;20017;-66
2022/10/09 06:50:16;;;;;;;0.30;0.30;;;20.40;56.00;;;;;;6265778;28;20033;-66
2022/10/09 06:53:17;;;;;;;1.00;0.40;;;20.40;56.00;;;;;;6265895;28;20891;-66
2022/10/09 06:56:19;;;;;;;0.60;0.30;;;20.40;56.00;;;;;;6265816;28;20033;-66
2022/10/09 06:59:20;;;;;;;0.40;0.30;;;20.40;56.00;;;;;;6266384;28;20025;-66
2022/10/09 07:02:21;;;;;;;0.50;0.30;;;20.40;56.00;;;;;;6256075;28;20538;-65
2022/10/09 07:05:22;;;;;;;0.63;0.30;;;20.40;56.00;;;;;;6240289;28;20044;-66
2022/10/09 07:08:22;;;;;;;0.28;0.28;;;20.40;56.00;;;;;;6265128;28;20522;-66
2022/10/09 07:11:31;;;;;;;0.45;0.30;;;20.40;56.00;;;;;;6265569;28;20478;-66
2022/10/09 07:14:31;;;;;;;0.70;0.55;;;20.40;56.00;;;;;;6265514;28;20465;-65
2022/10/09 07:17:32;;;;;;;0.38;0.30;;;20.40;56.00;;;;;;6265052;28;20065;-65
2022/10/09 07:20:35;;;;;;;0.70;0.40;;;20.40;56.00;;;;;;6264324;28;20033;-65
2022/10/09 07:23:36;;;;;;;0.43;0.40;;;20.40;56.00;;;;;;6264925;28;20071;-66
2022/10/09 07:26:39;;;;;;;0.50;0.30;;;20.40;56.00;;;;;;6265411;28;20071;-66
2022/10/09 07:29:41;;;;;;;0.45;0.30;;;20.40;56.00;;;;;;6265528;28;20052;-66
2022/10/09 07:32:42;;;;;;;0.43;0.38;;;20.40;55.90;;;;;;6265574;28;20029;-65
2022/10/09 07:35:51;;;;;;;0.60;0.30;;;20.40;56.00;;;;;;6265229;28;20045;-66
2022/10/09 07:38:54;;;;;;;0.57;0.30;;;20.40;56.00;;;;;;6265196;28;20405;-65
2022/10/09 07:41:54;;;;;;;0.60;0.40;;;20.40;56.00;;;;;;6265272;28;20033;-65
2022/10/09 07:44:55;;;;;;;0.57;0.30;;;20.40;55.90;;;;;;6260285;28;20017;-66
2022/10/09 07:47:56;;;;;;;0.40;0.30;;;20.40;56.00;;;;;;6255471;28;20068;-65
2022/10/09 07:50:56;;;;;;;0.55;0.47;;;20.40;56.00;;;;;;6265146;28;20027;-66
2022/10/09 07:53:59;;;;;;;0.68;0.40;;;20.40;56.00;;;;;;6264951;28;20108;-66
2022/10/09 07:56:59;;;;;;;0.40;0.30;;;20.40;56.00;;;;;;6265375;28;20567;-66
2022/10/09 08:00:00;;;;;;;0.50;0.40;;;20.40;55.90;;;;;;6263843;28;20029;-66
2022/10/09 08:03:01;;;;;;;0.63;0.30;;;20.40;55.90;;;;;;6265099;28;20105;-66
2022/10/09 08:06:02;;;;;;;1.20;0.40;;;20.40;56.00;;;;;;6263659;28;20029;-65
2022/10/09 08:09:05;;;;;;;0.50;0.40;;;20.40;56.00;;;;;;6265065;28;20021;-65
2022/10/09 08:12:05;;;;;;;0.25;0.25;;;20.40;56.00;;;;;;6264926;28;20024;-66
2022/10/09 08:15:07;;;;;;;0.35;0.30;;;20.40;55.90;;;;;;6264674;28;20029;-66
2022/10/09 08:18:08;;;;;;;0.60;0.32;;;20.40;56.00;;;;;;6264608;28;20100;-66
2022/10/09 08:21:15;;;;;;;0.28;0.20;;;20.40;56.00;;;;;;6264854;28;20428;-66
2022/10/09 08:24:16;;;;;;;0.63;0.30;;;20.40;56.00;;;;;;6264671;28;20025;-65
2022/10/09 08:27:16;;;;;;;0.30;0.20;;;20.40;56.00;;;;;;6263760;28;20016;-65
2022/10/09 08:30:17;;;;;;;0.73;0.40;;;20.40;56.00;;;;;;6245096;28;20036;-66
2022/10/09 08:33:20;;;;;;;2.83;0.68;;;20.40;56.00;;;;;;6260536;28;20032;-66
2022/10/09 08:36:22;;;;;;;0.35;0.20;;;20.40;55.80;;;;;;6263222;28;20605;-66
2022/10/09 08:39:22;;;;;;;0.65;0.30;;;20.40;55.90;;;;;;6266667;28;20071;-66
2022/10/09 08:42:34;;;;;;;0.75;0.40;;;20.40;55.80;;;;;;6267736;28;20068;-66
2022/10/09 08:45:37;;;;;;;0.28;0.28;;;20.40;55.80;;;;;;6264690;28;20029;-67
2022/10/09 08:48:43;;;;;;;0.60;0.30;;;20.40;55.90;;;;;;6255389;28;20201;-66
2022/10/09 08:51:45;;;;;;;0.65;0.30;;;20.40;55.90;;;;;;6264374;28;20028;-66
2022/10/09 08:54:46;;;;;;;0.85;0.47;;;20.40;56.00;;;;;;6265725;28;20024;-66
2022/10/09 08:57:50;;;;;;;0.70;0.30;;;20.40;55.90;;;;;;6267768;28;20020;-66
2022/10/09 09:01:10;;;;;;;0.65;0.30;;;20.40;56.00;;;;;;6267080;28;20594;-66
2022/10/09 09:04:19;;;;;;;0.63;0.43;;;20.40;55.90;;;;;;6267044;28;20025;-66
2022/10/09 09:08:08;;;;;;;0.98;0.50;;;20.40;56.00;;;;;;6242969;28;20025;-66
2022/10/09 09:11:37;;;;;;;1.10;0.50;;;20.40;56.00;;;;;;6241597;28;20475;-66
2022/10/09 09:14:43;;;;;;;3.70;0.73;;;20.40;56.00;;;;;;6257268;28;20036;-66
2022/10/09 09:18:00;;;;;;;1.33;0.80;;;20.40;56.00;;;;;;6264322;28;20577;-66
2022/10/09 09:21:07;;;;;;;1.55;0.75;;;20.40;56.00;;;;;;6266710;28;20027;-68
2022/10/09 09:24:37;;;;;;;1.58;0.50;;;20.40;56.00;;;;;;6263540;28;20025;-66
2022/10/09 09:27:38;;;;;;;1.30;0.52;;;20.40;56.00;;;;;;6262969;28;20112;-66
2022/10/09 09:30:46;;;;;;;1.55;0.50;;;20.40;56.00;;;;;;6262892;28;20044;-67
2022/10/09 09:33:54;;;;;;;4.82;0.63;;;20.40;56.00;;;;;;6268585;28;20056;-68
2022/10/09 09:37:03;;;;;;;1.20;0.70;;;20.40;56.00;;;;;;6274555;28;20051;-67
2022/10/09 09:40:12;;;;;;;1.83;0.80;;;20.40;56.00;;;;;;6263090;28;20021;-64
2022/10/09 09:43:21;;;;;;;2.97;0.68;;;20.40;56.00;;;;;;6267630;28;20037;-65
2022/10/09 09:46:27;;;;;;;1.80;0.68;;;20.40;56.10;;;;;;6268009;28;20059;-66
2022/10/09 09:49:28;;;;;;;1.23;0.70;;;20.40;56.00;;;;;;6268098;28;20565;-66
2022/10/09 09:52:36;;;;;;;1.63;0.65;;;20.40;56.20;;;;;;6267949;28;20014;-65
2022/10/09 09:55:37;;;;;;;0.93;0.57;;;20.40;56.20;;;;;;6267900;28;20044;-65
2022/10/09 09:58:43;;;;;;;1.90;0.50;;;20.40;56.30;;;;;;6268072;28;20029;-65
2022/10/09 10:01:44;;;;;;;1.58;0.50;;;20.40;56.50;;;;;;6267690;28;20021;-65
2022/10/09 10:04:49;;;;;;;0.95;0.65;;;20.40;56.50;;;;;;6267384;28;20045;-65
2022/10/09 10:07:50;;;;;;;3.97;0.60;;;20.40;56.50;;;;;;6266415;28;20024;-65
2022/10/09 10:10:59;;;;;;;1.13;0.65;;;20.40;56.50;;;;;;6267601;28;20025;-66
2022/10/09 10:14:08;;;;;;;0.70;0.50;;;20.40;56.50;;;;;;6267031;28;20047;-65
2022/10/09 10:17:27;;;;;;;1.08;0.57;;;20.40;56.60;;;;;;6267087;28;20112;-65
2022/10/09 10:20:31;;;;;;;1.38;0.60;;;20.40;56.60;;;;;;6267226;28;20029;-66
2022/10/09 10:23:44;;;;;;;1.50;0.60;;;20.40;56.70;;;;;;6266950;28;20100;-65
2022/10/09 10:26:57;;;;;;;1.02;0.57;;;20.40;56.60;;;;;;6266922;28;20028;-65
2022/10/09 10:30:02;;;;;;;1.35;0.65;;;20.40;56.70;;;;;;6265743;28;20044;-66
2022/10/09 10:33:12;;;;;;;2.35;0.70;;;20.40;56.70;;;;;;6266264;28;20025;-63
2022/10/09 10:36:12;;;;;;;1.25;0.60;;;20.40;56.70;;;;;;6266635;28;20025;-66
2022/10/09 10:39:39;;;;;;;0.50;0.45;;;20.40;56.70;;;;;;6263315;28;20032;-65
2022/10/09 10:43:05;;;;;;;1.63;0.63;;;20.40;56.70;;;;;;6261935;28;20147;-65
2022/10/09 10:46:20;;;;;;;1.35;0.60;;;20.40;56.80;;;;;;6264934;28;20029;-65
2022/10/09 10:49:29;;;;;;;1.38;0.63;;;20.40;56.70;;;;;;6259596;28;20072;-67
2022/10/09 10:52:58;;;;;;;0.93;0.70;;;20.40;56.60;;;;;;6265703;28;20025;-66
2022/10/09 10:56:08;;;;;;;1.83;0.63;;;20.40;56.70;;;;;;6264897;28;20123;-65
2022/10/09 10:59:38;;;;;;;0.80;0.55;;;20.40;56.80;;;;;;6265391;28;20031;-65
2022/10/09 11:03:05;;;;;;;1.90;0.30;;;20.40;56.60;;;;;;6247798;28;20061;-66
2022/10/09 11:06:24;;;;;;;2.22;0.73;;;20.40;56.50;;;;;;6264496;28;20112;-66
2022/10/09 11:09:47;;;;;;;1.27;0.52;;;20.40;56.50;;;;;;6259856;28;20104;-66
2022/10/09 11:12:59;;;;;;;1.33;0.32;;;20.40;56.50;;;;;;6241773;28;20104;-65
2022/10/09 11:16:13;;;;;;;1.02;0.50;;;20.50;56.30;;;;;;6241346;28;20028;-66
2022/10/09 11:19:36;;;;;;;1.80;0.68;;;20.50;56.30;;;;;;6242745;28;20025;-65
2022/10/09 11:22:55;;;;;;;0.98;0.60;;;20.50;56.20;;;;;;6240972;28;20328;-65
2022/10/09 11:26:43;;;;;;;1.45;0.63;;;20.50;56.10;;;;;;6241428;28;20381;-65
2022/10/09 11:30:03;;;;;;;1.13;0.45;;;20.50;56.00;;;;;;6235866;28;20026;-65
2022/10/09 11:33:35;;;;;;;5.38;0.75;;;20.60;56.10;;;;;;6259017;28;20160;-65
2022/10/09 11:36:41;;;;;;;1.25;0.50;;;20.60;56.00;;;;;;6266084;28;20333;-66
2022/10/09 11:39:42;;;;;;;1.23;0.50;;;20.60;56.20;;;;;;6266259;28;20025;-65
2022/10/09 11:43:13;;;;;;;1.42;0.50;;;20.50;56.10;;;;;;6265995;28;20359;-65
2022/10/09 11:46:43;;;;;;;0.55;0.30;;;20.50;56.10;;;;;;6265910;28;20029;-65
2022/10/09 11:49:59;;;;;;;1.75;0.50;;;20.50;56.20;;;;;;6266235;28;20292;-65
2022/10/09 11:53:09;;;;;;;0.60;0.45;;;20.50;56.20;;;;;;6266400;28;20040;-65
2022/10/09 11:56:34;;;;;;;1.55;0.60;;;20.50;56.20;;;;;;6265709;28;20075;-66
2022/10/09 11:59:40;;;;;;;0.75;0.40;;;20.50;56.30;;;;;;6266142;28;20031;-66
2022/10/09 12:02:42;;;;;;;1.10;0.60;;;20.50;56.20;;;;;;6268635;28;20021;-65
2022/10/09 12:05:46;;;;;;;1.67;0.70;;;20.50;56.30;;;;;;6270364;28;20017;-66
2022/10/09 12:09:00;;;;;;;3.63;0.70;;;20.50;56.30;;;;;;6270852;28;20558;-66
2022/10/09 12:12:18;;;;;;;2.78;0.65;;;20.50;56.30;;;;;;6271047;28;20021;-66
2022/10/09 12:15:51;;;;;;;1.17;0.40;;;20.50;56.30;;;;;;6268324;28;20021;-66
2022/10/09 12:18:52;;;;;;;1.05;0.50;;;20.50;56.30;;;;;;6258114;28;20032;-66
2022/10/09 12:22:02;;;;;;;1.63;0.52;;;20.50;56.30;;;;;;6245647;28;20033;-65
2022/10/09 12:25:07;;;;;;;1.85;0.40;;;20.50;56.30;;;;;;6243486;28;20491;-66
2022/10/09 12:28:50;;;;;;;1.27;0.50;;;20.50;56.30;;;;;;6244062;28;20128;-66
2022/10/09 12:32:03;;;;;;;0.52;0.30;;;20.50;56.30;;;;;;6245237;28;20060;-65
2022/10/09 12:35:14;;;;;;;1.25;0.60;;;20.50;56.40;;;;;;6244776;28;20271;-66
2022/10/09 12:38:30;;;;;;;1.50;0.50;;;20.50;56.40;;;;;;6245296;28;20402;-65
2022/10/09 12:41:33;;;;;;;0.55;0.45;;;20.50;56.50;;;;;;6243439;28;20040;-65
2022/10/09 12:44:46;;;;;;;5.95;0.88;;;20.50;56.50;;;;;;6244461;28;20018;-66
2022/10/09 12:47:47;;;;;;;0.73;0.40;;;20.50;56.30;;;;;;6244514;28;20045;-67
2022/10/09 12:50:49;;;;;;;2.08;0.50;;;20.50;56.40;;;;;;6244783;28;20037;-65
2022/10/09 12:53:52;;;;;;;1.27;0.43;;;20.50;56.40;;;;;;6242589;28;20398;-66
2022/10/09 12:56:55;;;;;;;2.10;0.68;;;20.50;56.50;;;;;;6244270;28;20029;-65
2022/10/09 12:59:56;;;;;;;5.95;0.68;;;20.50;56.40;;;;;;6244237;28;20049;-65
2022/10/09 13:02:57;;;;;;;8.65;0.68;;;20.50;56.60;;;;;;6244214;28;20017;-66
2022/10/09 13:05:59;;;;;;;2.13;0.68;;;20.50;56.50;;;;;;6243672;28;20021;-66
2022/10/09 13:09:03;;;;;;;2.20;0.52;;;20.50;56.50;;;;;;6260639;28;20650;-66
2022/10/09 13:12:25;;;;;;;0.57;0.33;;;20.50;56.50;;;;;;6268121;28;20032;-66
2022/10/09 13:15:30;;;;;;;1.13;0.35;;;20.50;56.60;;;;;;6267138;28;20272;-65
2022/10/09 13:18:31;;;;;;;;;;;20.50;56.60;;;;;;6269301;28;20013;-63
2022/10/09 13:21:33;;;;;;;1.23;0.40;;;20.50;56.70;;;;;;6268640;28;19909;-65
2022/10/09 13:24:34;;;;;;;1.88;0.40;;;20.50;56.70;;;;;;6267953;28;20421;-65
2022/10/09 13:27:38;;;;;;;3.22;0.52;;;20.50;56.80;;;;;;6266832;28;20032;-64
2022/10/09 13:30:39;;;;;;;2.22;0.40;;;20.50;56.70;;;;;;6261466;28;20056;-65
2022/10/09 13:33:40;;;;;;;0.90;0.50;;;20.50;56.70;;;;;;6243344;28;20482;-64
2022/10/09 13:36:40;;;;;;;1.58;0.65;;;20.50;56.70;;;;;;6243535;28;20057;-64
2022/10/09 13:39:41;;;;;;;1.05;0.40;;;20.50;56.70;;;;;;6243727;28;20601;-66
2022/10/09 13:42:45;;;;;;;1.75;0.30;;;20.50;56.80;;;;;;6243620;28;20379;-65
2022/10/09 13:45:46;;;;;;;0.93;0.40;;;20.50;56.80;;;;;;6257353;28;20092;-67
2022/10/09 13:48:47;;;;;;;1.05;0.45;;;20.50;56.80;;;;;;6268056;28;20102;-65
2022/10/09 13:51:47;;;;;;;0.55;0.40;;;20.50;56.80;;;;;;6266797;28;20693;-67
2022/10/09 13:54:48;;;;;;;0.75;0.38;;;20.50;56.80;;;;;;6267084;28;20479;-66
2022/10/09 13:57:49;;;;;;;0.73;0.40;;;20.50;56.80;;;;;;6267753;28;20053;-65
2022/10/09 14:00:50;;;;;;;0.90;0.45;;;20.50;56.80;;;;;;6268127;28;20060;-65
2022/10/09 14:03:51;;;;;;;0.80;0.50;;;20.50;56.80;;;;;;6268672;28;20477;-65
2022/10/09 14:06:52;;;;;;;0.63;0.30;;;20.50;56.90;;;;;;6268904;28;20017;-65
2022/10/09 14:09:52;;;;;;;0.95;0.30;;;20.50;56.80;;;;;;6267515;28;20024;-66
2022/10/09 14:12:53;;;;;;;0.88;0.52;;;20.40;56.80;;;;;;6268847;28;20630;-67
2022/10/09 14:15:54;;;;;;;0.88;0.40;;;20.50;56.80;;;;;;6268487;28;20067;-66
2022/10/09 14:18:57;;;;;;;0.95;0.40;;;20.50;56.90;;;;;;6268357;28;20053;-66
2022/10/09 14:21:57;;;;;;;0.65;0.38;;;20.50;56.80;;;;;;6268287;28;20410;-66
2022/10/09 14:24:58;;;;;;;0.80;0.30;;;20.40;56.80;;;;;;6267090;28;20024;-67
2022/10/09 14:27:59;;;;;;;1.83;0.40;;;20.50;56.90;;;;;;6268262;28;20108;-67
2022/10/09 14:31:04;;;;;;;0.55;0.30;;;20.50;56.90;;;;;;6268196;28;20024;-66
2022/10/09 14:34:05;;;;;;;1.02;0.43;;;20.40;56.80;;;;;;6268101;28;20021;-66
2022/10/09 14:37:06;;;;;;;1.38;0.47;;;20.40;56.80;;;;;;6268133;28;20544;-65
2022/10/09 14:40:07;;;;;;;0.73;0.50;;;20.50;56.90;;;;;;6267866;28;20029;-66
2022/10/09 14:43:07;;;;;;;1.05;0.57;;;20.40;56.80;;;;;;6267681;28;20021;-66
2022/10/09 14:46:15;;;;;;;0.80;0.40;;;20.40;56.80;;;;;;6267668;28;20060;-66
2022/10/09 14:49:16;;;;;;;0.88;0.40;;;20.40;56.80;;;;;;6267517;28;20033;-66
2022/10/09 14:52:17;;;;;;;0.60;0.30;;;20.40;56.80;;;;;;6266430;28;20032;-66
2022/10/09 14:55:18;;;;;;;0.63;0.30;;;20.40;56.90;;;;;;6267160;28;20075;-66
2022/10/09 14:58:18;;;;;;;0.47;0.38;;;20.40;56.90;;;;;;6267520;28;20117;-67
2022/10/09 15:01:21;;;;;;;0.30;0.20;;;20.40;56.80;;;;;;6267755;28;20052;-66
2022/10/09 15:04:22;;;;;;;0.55;0.30;;;20.40;56.90;;;;;;6267604;28;20096;-66
2022/10/09 15:07:23;;;;;;;0.52;0.40;;;20.40;56.90;;;;;;6266107;28;20027;-67
2022/10/09 15:10:24;;;;;;;0.85;0.45;;;20.40;56.80;;;;;;6267413;28;20025;-67
2022/10/09 15:13:25;;;;;;;0.80;0.20;;;20.40;56.90;;;;;;6265983;28;20025;-66
2022/10/09 15:16:25;;;;;;;1.00;0.30;;;20.40;56.90;;;;;;6267265;28;20064;-67
2022/10/09 15:19:26;;;;;;;0.47;0.30;;;20.40;56.90;;;;;;6267308;28;20415;-67
2022/10/09 15:22:26;;;;;;;0.50;0.30;;;20.40;56.80;;;;;;6267069;28;20040;-66
2022/10/09 15:25:30;;;;;;;0.88;0.40;;;20.40;56.90;;;;;;6267167;28;20025;-66
2022/10/09 15:28:31;;;;;;;3.20;1.05;;;20.40;56.90;;;;;;6267258;28;20497;-66
2022/10/09 15:31:35;;;;;;;0.50;0.20;;;20.40;56.90;;;;;;6267476;28;20025;-67
2022/10/09 15:34:35;;;;;;;0.60;0.30;;;20.40;56.90;;;;;;6265625;28;20023;-67
2022/10/09 15:37:36;;;;;;;0.90;0.28;;;20.40;56.90;;;;;;6269780;28;20509;-66
2022/10/09 15:40:45;;;;;;;0.85;0.40;;;20.40;56.90;;;;;;6271786;28;20036;-66
2022/10/09 15:43:45;;;;;;;0.25;0.20;;;20.40;56.90;;;;;;6272012;28;20029;-65
2022/10/09 15:46:47;;;;;;;0.95;0.30;;;20.40;56.90;;;;;;6272273;28;20020;-65
2022/10/09 15:49:49;;;;;;;0.32;0.32;;;20.40;56.90;;;;;;6271918;28;20045;-65
2022/10/09 15:52:49;;;;;;;1.08;0.40;;;20.40;56.90;;;;;;6271871;28;20025;-66
2022/10/09 15:55:52;;;;;;;0.57;0.30;;;20.40;56.90;;;;;;6270127;28;20500;-65
2022/10/09 15:58:54;;;;;;;2.13;0.45;;;20.40;56.90;;;;;;6271586;28;20036;-65
2022/10/09 16:01:54;;;;;;;0.93;0.50;;;20.40;56.90;;;;;;6271446;28;20737;-66
2022/10/09 16:04:55;;;;;;;0.50;0.30;;;20.40;56.90;;;;;;6270652;28;20024;-65